sensor_id;sensor_type;location;lat;lon;timestamp;temperature;humidity
11511;DHT22;5812;48.864;9.190;2022-08-21T00:01:59;15.40;1.00
11511;DHT22;5812;48.864;9.190;2022-08-21T00:04:24;15.60;1.00
11511;DHT22;5812;48.864;9.190;2022-08-21T00:06:51;15.60;1.00
11511;DHT22;5812;48.864;9.190;2022-08-21T00:09:18;15.60;1.00
11511;DHT22;5812;48.864;9.190;2022-08-21T00:11:44;15.70;1.00
11511;DHT22;5812;48.864;9.190;2022-08-21T00:14:11;15.70;1.00
11511;DHT22;5812;48.864;9.190;2022-08-21T00:16:37;15.80;1.00
11511;DHT22;5812;48.864;9.190;2022-08-21T00:19:04;15.70;1.00
11511;DHT22;5812;48.864;9.190;2022-08-21T00:21:31;15.70;1.00
11511;DHT22;5812;48.864;9.190;2022-08-21T00:23:57;15.70;1.00
11511;DHT22;5812;48.864;9.190;2022-08-21T00:26:23;15.60;1.00
11511;DHT22;5812;48.864;9.190;2022-08-21T00:28:49;15.40;1.00
11511;DHT22;5812;48.864;9.190;2022-08-21T00:31:16;15.40;1.00
11511;DHT22;5812;48.864;9.190;2022-08-21T00:33:42;15.20;1.00
11511;DHT22;5812;48.864;9.190;2022-08-21T00:36:08;15.20;1.00
11511;DHT22;5812;48.864;9.190;2022-08-21T00:38:33;15.20;1.00
11511;DHT22;5812;48.864;9.190;2022-08-21T00:41:01;15.20;1.00
11511;DHT22;5812;48.864;9.190;2022-08-21T00:43:31;15.20;1.00
11511;DHT22;5812;48.864;9.190;2022-08-21T00:45:58;15.10;1.00
11511;DHT22;5812;48.864;9.190;2022-08-21T00:48:25;15.10;1.00
11511;DHT22;5812;48.864;9.190;2022-08-21T00:50:57;15.00;1.00
11511;DHT22;5812;48.864;9.190;2022-08-21T00:53:26;15.10;1.00
11511;DHT22;5812;48.864;9.190;2022-08-21T00:55:53;15.10;1.00
11511;DHT22;5812;48.864;9.190;2022-08-21T00:58:20;15.10;1.00
11511;DHT22;5812;48.864;9.190;2022-08-21T01:00:48;15.10;1.00
11511;DHT22;5812;48.864;9.190;2022-08-21T01:03:16;15.00;1.00
11511;DHT22;5812;48.864;9.190;2022-08-21T01:05:43;14.90;1.00
11511;DHT22;5812;48.864;9.190;2022-08-21T01:08:09;14.90;1.00
11511;DHT22;5812;48.864;9.190;2022-08-21T01:10:36;15.00;1.00
11511;DHT22;5812;48.864;9.190;2022-08-21T01:13:04;15.00;6.80
11511;DHT22;5812;48.864;9.190;2022-08-21T01:15:34;14.90;15.50
11511;DHT22;5812;48.864;9.190;2022-08-21T01:18:05;14.80;33.10
11511;DHT22;5812;48.864;9.190;2022-08-21T01:20:31;14.70;44.10
11511;DHT22;5812;48.864;9.190;2022-08-21T01:22:57;14.80;46.20
11511;DHT22;5812;48.864;9.190;2022-08-21T01:25:23;14.70;44.20
11511;DHT22;5812;48.864;9.190;2022-08-21T01:27:49;14.70;12.30
11511;DHT22;5812;48.864;9.190;2022-08-21T01:30:24;14.90;4.00
11511;DHT22;5812;48.864;9.190;2022-08-21T01:32:51;14.90;6.80
11511;DHT22;5812;48.864;9.190;2022-08-21T01:35:18;14.90;19.10
11511;DHT22;5812;48.864;9.190;2022-08-21T01:37:45;14.90;22.40
11511;DHT22;5812;48.864;9.190;2022-08-21T01:40:12;14.80;26.80
11511;DHT22;5812;48.864;9.190;2022-08-21T01:42:40;14.70;43.90
11511;DHT22;5812;48.864;9.190;2022-08-21T01:45:07;14.60;16.30
11511;DHT22;5812;48.864;9.190;2022-08-21T01:47:33;14.50;18.60
11511;DHT22;5812;48.864;9.190;2022-08-21T01:49:59;14.50;15.00
11511;DHT22;5812;48.864;9.190;2022-08-21T01:52:25;14.40;25.30
11511;DHT22;5812;48.864;9.190;2022-08-21T01:54:51;14.30;27.20
11511;DHT22;5812;48.864;9.190;2022-08-21T01:57:16;14.30;41.40
11511;DHT22;5812;48.864;9.190;2022-08-21T01:59:42;14.40;49.60
11511;DHT22;5812;48.864;9.190;2022-08-21T02:02:08;14.40;49.10
11511;DHT22;5812;48.864;9.190;2022-08-21T02:04:34;14.30;77.40
11511;DHT22;5812;48.864;9.190;2022-08-21T02:07:00;14.20;90.40
11511;DHT22;5812;48.864;9.190;2022-08-21T02:09:27;14.20;92.90
11511;DHT22;5812;48.864;9.190;2022-08-21T02:11:53;14.10;99.90
11511;DHT22;5812;48.864;9.190;2022-08-21T02:14:20;14.20;98.60
11511;DHT22;5812;48.864;9.190;2022-08-21T02:16:45;14.30;98.30
11511;DHT22;5812;48.864;9.190;2022-08-21T02:19:12;14.20;99.90
11511;DHT22;5812;48.864;9.190;2022-08-21T02:21:39;14.20;99.90
11511;DHT22;5812;48.864;9.190;2022-08-21T02:24:06;14.20;99.90
11511;DHT22;5812;48.864;9.190;2022-08-21T02:26:32;14.10;99.90
11511;DHT22;5812;48.864;9.190;2022-08-21T02:28:58;14.10;99.90
11511;DHT22;5812;48.864;9.190;2022-08-21T02:31:23;14.10;99.90
11511;DHT22;5812;48.864;9.190;2022-08-21T02:33:50;14.20;99.90
11511;DHT22;5812;48.864;9.190;2022-08-21T02:36:15;14.20;99.90
11511;DHT22;5812;48.864;9.190;2022-08-21T02:38:42;14.10;99.90
11511;DHT22;5812;48.864;9.190;2022-08-21T02:41:12;14.10;99.90
11511;DHT22;5812;48.864;9.190;2022-08-21T02:43:38;14.00;99.90
11511;DHT22;5812;48.864;9.190;2022-08-21T02:46:05;14.00;99.90
11511;DHT22;5812;48.864;9.190;2022-08-21T02:48:33;14.00;99.90
11511;DHT22;5812;48.864;9.190;2022-08-21T02:51:07;14.00;99.90
11511;DHT22;5812;48.864;9.190;2022-08-21T02:53:34;13.90;99.90
11511;DHT22;5812;48.864;9.190;2022-08-21T02:56:03;13.90;99.90
11511;DHT22;5812;48.864;9.190;2022-08-21T02:58:40;14.00;99.90
11511;DHT22;5812;48.864;9.190;2022-08-21T03:01:07;14.00;99.90
11511;DHT22;5812;48.864;9.190;2022-08-21T03:03:36;14.00;99.90
11511;DHT22;5812;48.864;9.190;2022-08-21T03:06:03;13.90;99.90
11511;DHT22;5812;48.864;9.190;2022-08-21T03:08:28;13.80;99.90
11511;DHT22;5812;48.864;9.190;2022-08-21T03:10:54;13.70;99.90
11511;DHT22;5812;48.864;9.190;2022-08-21T03:13:20;13.60;99.90
11511;DHT22;5812;48.864;9.190;2022-08-21T03:15:50;13.60;99.90
11511;DHT22;5812;48.864;9.190;2022-08-21T03:18:16;13.60;99.90
11511;DHT22;5812;48.864;9.190;2022-08-21T03:20:42;13.70;99.90
11511;DHT22;5812;48.864;9.190;2022-08-21T03:23:08;13.60;99.90
11511;DHT22;5812;48.864;9.190;2022-08-21T03:25:35;13.50;99.90
11511;DHT22;5812;48.864;9.190;2022-08-21T03:28:02;13.50;99.90
11511;DHT22;5812;48.864;9.190;2022-08-21T03:30:29;13.40;99.90
11511;DHT22;5812;48.864;9.190;2022-08-21T03:33:00;13.40;99.90
11511;DHT22;5812;48.864;9.190;2022-08-21T03:35:27;13.30;99.90
11511;DHT22;5812;48.864;9.190;2022-08-21T03:37:53;13.30;99.90
11511;DHT22;5812;48.864;9.190;2022-08-21T03:40:20;13.50;99.90
11511;DHT22;5812;48.864;9.190;2022-08-21T03:42:46;13.40;99.90
11511;DHT22;5812;48.864;9.190;2022-08-21T03:45:13;13.30;99.90
11511;DHT22;5812;48.864;9.190;2022-08-21T03:47:39;13.30;99.90
11511;DHT22;5812;48.864;9.190;2022-08-21T03:50:15;13.30;99.90
11511;DHT22;5812;48.864;9.190;2022-08-21T03:52:42;13.20;99.90
11511;DHT22;5812;48.864;9.190;2022-08-21T03:55:07;13.30;99.90
11511;DHT22;5812;48.864;9.190;2022-08-21T03:57:33;13.30;99.90
11511;DHT22;5812;48.864;9.190;2022-08-21T03:59:59;13.30;99.90
11511;DHT22;5812;48.864;9.190;2022-08-21T04:02:24;13.30;99.90
11511;DHT22;5812;48.864;9.190;2022-08-21T04:04:50;13.20;99.90
11511;DHT22;5812;48.864;9.190;2022-08-21T04:07:16;13.10;99.90
11511;DHT22;5812;48.864;9.190;2022-08-21T04:09:42;13.10;99.90
11511;DHT22;5812;48.864;9.190;2022-08-21T04:12:08;13.10;99.90
11511;DHT22;5812;48.864;9.190;2022-08-21T04:14:34;13.10;99.90
11511;DHT22;5812;48.864;9.190;2022-08-21T04:16:59;13.10;99.90
11511;DHT22;5812;48.864;9.190;2022-08-21T04:19:25;13.10;99.90
11511;DHT22;5812;48.864;9.190;2022-08-21T04:21:51;13.10;99.90
11511;DHT22;5812;48.864;9.190;2022-08-21T04:24:16;13.00;99.90
11511;DHT22;5812;48.864;9.190;2022-08-21T04:26:42;13.00;99.90
11511;DHT22;5812;48.864;9.190;2022-08-21T04:29:08;13.10;99.90
11511;DHT22;5812;48.864;9.190;2022-08-21T04:31:34;13.20;99.90
11511;DHT22;5812;48.864;9.190;2022-08-21T04:34:03;13.10;99.90
11511;DHT22;5812;48.864;9.190;2022-08-21T04:36:30;13.20;99.90
11511;DHT22;5812;48.864;9.190;2022-08-21T04:38:56;13.20;99.90
11511;DHT22;5812;48.864;9.190;2022-08-21T04:41:22;13.40;99.90
11511;DHT22;5812;48.864;9.190;2022-08-21T04:43:47;13.40;99.90
11511;DHT22;5812;48.864;9.190;2022-08-21T04:46:13;13.40;99.90
11511;DHT22;5812;48.864;9.190;2022-08-21T04:48:39;13.40;99.90
11511;DHT22;5812;48.864;9.190;2022-08-21T04:51:32;13.40;99.90
11511;DHT22;5812;48.864;9.190;2022-08-21T04:54:14;13.50;99.90
11511;DHT22;5812;48.864;9.190;2022-08-21T04:56:45;13.50;99.90
11511;DHT22;5812;48.864;9.190;2022-08-21T04:59:19;13.60;99.90
11511;DHT22;5812;48.864;9.190;2022-08-21T05:01:47;13.70;99.90
11511;DHT22;5812;48.864;9.190;2022-08-21T05:04:14;13.80;99.90
11511;DHT22;5812;48.864;9.190;2022-08-21T05:06:45;13.90;99.90
11511;DHT22;5812;48.864;9.190;2022-08-21T05:09:14;14.00;99.90
11511;DHT22;5812;48.864;9.190;2022-08-21T05:11:41;14.20;99.90
11511;DHT22;5812;48.864;9.190;2022-08-21T05:14:08;14.30;99.90
11511;DHT22;5812;48.864;9.190;2022-08-21T05:16:34;14.40;99.90
11511;DHT22;5812;48.864;9.190;2022-08-21T05:18:59;14.40;99.90
11511;DHT22;5812;48.864;9.190;2022-08-21T05:21:25;14.60;99.90
11511;DHT22;5812;48.864;9.190;2022-08-21T05:23:50;14.70;99.90
11511;DHT22;5812;48.864;9.190;2022-08-21T05:26:16;14.80;99.90
11511;DHT22;5812;48.864;9.190;2022-08-21T05:28:41;14.90;99.90
11511;DHT22;5812;48.864;9.190;2022-08-21T05:31:07;15.10;99.90
11511;DHT22;5812;48.864;9.190;2022-08-21T05:33:33;15.30;98.30
11511;DHT22;5812;48.864;9.190;2022-08-21T05:35:59;15.60;35.40
11511;DHT22;5812;48.864;9.190;2022-08-21T05:38:27;15.80;36.50
11511;DHT22;5812;48.864;9.190;2022-08-21T05:40:53;16.10;60.40
11511;DHT22;5812;48.864;9.190;2022-08-21T05:43:19;16.50;38.80
11511;DHT22;5812;48.864;9.190;2022-08-21T05:45:45;16.70;1.00
11511;DHT22;5812;48.864;9.190;2022-08-21T05:48:15;16.70;1.00
11511;DHT22;5812;48.864;9.190;2022-08-21T05:50:41;17.20;11.50
11511;DHT22;5812;48.864;9.190;2022-08-21T05:53:08;17.40;1.00
11511;DHT22;5812;48.864;9.190;2022-08-21T05:55:35;17.50;1.00
11511;DHT22;5812;48.864;9.190;2022-08-21T05:58:02;17.60;1.00
11511;DHT22;5812;48.864;9.190;2022-08-21T06:00:28;17.40;1.00
11511;DHT22;5812;48.864;9.190;2022-08-21T06:02:54;17.70;99.90
11511;DHT22;5812;48.864;9.190;2022-08-21T06:05:19;17.70;1.00
11511;DHT22;5812;48.864;9.190;2022-08-21T06:07:45;17.50;1.00
11511;DHT22;5812;48.864;9.190;2022-08-21T06:10:11;17.60;99.90
11511;DHT22;5812;48.864;9.190;2022-08-21T06:12:37;17.80;99.90
11511;DHT22;5812;48.864;9.190;2022-08-21T06:15:03;17.70;99.90
11511;DHT22;5812;48.864;9.190;2022-08-21T06:17:29;17.90;99.90
11511;DHT22;5812;48.864;9.190;2022-08-21T06:19:54;18.20;99.90
11511;DHT22;5812;48.864;9.190;2022-08-21T06:22:20;18.40;99.90
11511;DHT22;5812;48.864;9.190;2022-08-21T06:24:46;18.90;95.20
11511;DHT22;5812;48.864;9.190;2022-08-21T06:27:12;19.00;99.90
11511;DHT22;5812;48.864;9.190;2022-08-21T06:29:37;18.90;99.90
11511;DHT22;5812;48.864;9.190;2022-08-21T06:32:04;18.70;1.00
11511;DHT22;5812;48.864;9.190;2022-08-21T06:34:35;19.30;1.00
11511;DHT22;5812;48.864;9.190;2022-08-21T06:37:01;19.40;99.90
11511;DHT22;5812;48.864;9.190;2022-08-21T06:39:26;20.00;99.90
11511;DHT22;5812;48.864;9.190;2022-08-21T06:41:52;20.30;99.90
11511;DHT22;5812;48.864;9.190;2022-08-21T06:44:18;20.50;99.90
11511;DHT22;5812;48.864;9.190;2022-08-21T06:46:44;20.90;99.90
11511;DHT22;5812;48.864;9.190;2022-08-21T06:49:09;20.80;99.90
11511;DHT22;5812;48.864;9.190;2022-08-21T06:51:35;20.90;99.90
11511;DHT22;5812;48.864;9.190;2022-08-21T06:54:00;21.20;99.90
11511;DHT22;5812;48.864;9.190;2022-08-21T06:56:26;21.20;94.50
11511;DHT22;5812;48.864;9.190;2022-08-21T06:58:52;21.10;51.10
11511;DHT22;5812;48.864;9.190;2022-08-21T07:01:20;21.10;91.90
11511;DHT22;5812;48.864;9.190;2022-08-21T07:03:46;21.60;99.90
11511;DHT22;5812;48.864;9.190;2022-08-21T07:06:11;22.20;66.90
11511;DHT22;5812;48.864;9.190;2022-08-21T07:08:38;22.50;45.30
11511;DHT22;5812;48.864;9.190;2022-08-21T07:11:09;22.60;1.00
11511;DHT22;5812;48.864;9.190;2022-08-21T07:13:36;22.50;1.00
11511;DHT22;5812;48.864;9.190;2022-08-21T07:16:02;22.80;9.60
11511;DHT22;5812;48.864;9.190;2022-08-21T07:18:27;23.30;3.80
11511;DHT22;5812;48.864;9.190;2022-08-21T07:20:53;23.30;1.00
11511;DHT22;5812;48.864;9.190;2022-08-21T07:23:26;23.30;1.00
11511;DHT22;5812;48.864;9.190;2022-08-21T07:25:52;23.40;1.00
11511;DHT22;5812;48.864;9.190;2022-08-21T07:28:18;23.30;1.00
11511;DHT22;5812;48.864;9.190;2022-08-21T07:30:44;23.60;1.00
11511;DHT22;5812;48.864;9.190;2022-08-21T07:33:10;23.70;1.00
11511;DHT22;5812;48.864;9.190;2022-08-21T07:35:36;23.50;1.00
11511;DHT22;5812;48.864;9.190;2022-08-21T07:38:02;24.00;1.00
11511;DHT22;5812;48.864;9.190;2022-08-21T07:40:27;24.00;1.00
11511;DHT22;5812;48.864;9.190;2022-08-21T07:42:53;23.70;1.00
11511;DHT22;5812;48.864;9.190;2022-08-21T07:45:21;23.90;1.00
11511;DHT22;5812;48.864;9.190;2022-08-21T07:47:47;24.50;1.00
11511;DHT22;5812;48.864;9.190;2022-08-21T07:50:14;24.40;1.00
11511;DHT22;5812;48.864;9.190;2022-08-21T07:52:40;24.30;1.00
11511;DHT22;5812;48.864;9.190;2022-08-21T07:55:11;24.80;1.00
11511;DHT22;5812;48.864;9.190;2022-08-21T07:57:37;25.00;1.00
11511;DHT22;5812;48.864;9.190;2022-08-21T08:00:05;25.00;1.00
11511;DHT22;5812;48.864;9.190;2022-08-21T08:02:31;25.20;1.00
11511;DHT22;5812;48.864;9.190;2022-08-21T08:05:02;25.00;1.00
11511;DHT22;5812;48.864;9.190;2022-08-21T08:07:28;25.30;1.00
11511;DHT22;5812;48.864;9.190;2022-08-21T08:09:54;24.90;1.00
11511;DHT22;5812;48.864;9.190;2022-08-21T08:12:20;25.50;1.00
11511;DHT22;5812;48.864;9.190;2022-08-21T08:14:46;25.30;1.00
11511;DHT22;5812;48.864;9.190;2022-08-21T08:17:12;25.60;1.00
11511;DHT22;5812;48.864;9.190;2022-08-21T08:19:39;25.70;1.00
11511;DHT22;5812;48.864;9.190;2022-08-21T08:22:15;25.90;1.00
11511;DHT22;5812;48.864;9.190;2022-08-21T08:24:41;26.80;1.00
11511;DHT22;5812;48.864;9.190;2022-08-21T08:27:07;27.20;1.00
11511;DHT22;5812;48.864;9.190;2022-08-21T08:29:33;27.10;1.00
11511;DHT22;5812;48.864;9.190;2022-08-21T08:31:58;27.10;1.00
11511;DHT22;5812;48.864;9.190;2022-08-21T08:34:24;26.90;1.00
11511;DHT22;5812;48.864;9.190;2022-08-21T08:36:50;26.90;1.00
11511;DHT22;5812;48.864;9.190;2022-08-21T08:39:15;27.10;1.00
11511;DHT22;5812;48.864;9.190;2022-08-21T08:41:42;26.60;1.00
11511;DHT22;5812;48.864;9.190;2022-08-21T08:44:10;26.60;1.00
11511;DHT22;5812;48.864;9.190;2022-08-21T08:46:43;26.60;1.00
11511;DHT22;5812;48.864;9.190;2022-08-21T08:49:34;26.70;1.00
11511;DHT22;5812;48.864;9.190;2022-08-21T08:52:32;26.40;1.00
11511;DHT22;5812;48.864;9.190;2022-08-21T08:55:16;27.00;1.00
11511;DHT22;5812;48.864;9.190;2022-08-21T08:57:46;27.70;1.00
11511;DHT22;5812;48.864;9.190;2022-08-21T09:00:15;27.50;1.00
11511;DHT22;5812;48.864;9.190;2022-08-21T09:02:43;27.40;1.00
11511;DHT22;5812;48.864;9.190;2022-08-21T09:05:25;27.50;1.00
11511;DHT22;5812;48.864;9.190;2022-08-21T09:11:11;26.90;1.00
11511;DHT22;5812;48.864;9.190;2022-08-21T09:14:07;27.70;1.00
11511;DHT22;5812;48.864;9.190;2022-08-21T09:16:39;27.40;1.00
11511;DHT22;5812;48.864;9.190;2022-08-21T09:19:28;27.60;1.00
11511;DHT22;5812;48.864;9.190;2022-08-21T09:24:50;28.60;1.00
11511;DHT22;5812;48.864;9.190;2022-08-21T09:27:19;28.40;1.00
11511;DHT22;5812;48.864;9.190;2022-08-21T09:29:49;28.00;1.00
11511;DHT22;5812;48.864;9.190;2022-08-21T09:32:25;27.90;1.00
11511;DHT22;5812;48.864;9.190;2022-08-21T09:35:13;28.40;1.00
11511;DHT22;5812;48.864;9.190;2022-08-21T09:37:52;28.50;1.00
11511;DHT22;5812;48.864;9.190;2022-08-21T09:45:38;28.60;1.00
11511;DHT22;5812;48.864;9.190;2022-08-21T09:48:12;29.00;1.00
11511;DHT22;5812;48.864;9.190;2022-08-21T09:50:39;29.80;1.00
11511;DHT22;5812;48.864;9.190;2022-08-21T09:53:13;29.90;1.00
11511;DHT22;5812;48.864;9.190;2022-08-21T09:55:56;30.20;1.00
11511;DHT22;5812;48.864;9.190;2022-08-21T09:58:45;30.10;1.00
11511;DHT22;5812;48.864;9.190;2022-08-21T10:01:20;29.80;1.00
11511;DHT22;5812;48.864;9.190;2022-08-21T10:03:47;30.30;1.00
11511;DHT22;5812;48.864;9.190;2022-08-21T10:06:25;30.80;1.00
11511;DHT22;5812;48.864;9.190;2022-08-21T10:09:04;31.00;1.00
11511;DHT22;5812;48.864;9.190;2022-08-21T10:11:30;31.20;1.00
11511;DHT22;5812;48.864;9.190;2022-08-21T10:14:14;31.50;1.00
11511;DHT22;5812;48.864;9.190;2022-08-21T10:17:04;31.40;1.00
11511;DHT22;5812;48.864;9.190;2022-08-21T10:19:54;31.40;1.00
11511;DHT22;5812;48.864;9.190;2022-08-21T10:25:18;32.10;1.00
11511;DHT22;5812;48.864;9.190;2022-08-21T10:30:50;32.70;1.00
11511;DHT22;5812;48.864;9.190;2022-08-21T10:51:46;31.70;1.00
11511;DHT22;5812;48.864;9.190;2022-08-21T10:57:31;29.40;1.00
11511;DHT22;5812;48.864;9.190;2022-08-21T11:00:02;30.80;1.00
11511;DHT22;5812;48.864;9.190;2022-08-21T11:02:37;32.10;1.00
11511;DHT22;5812;48.864;9.190;2022-08-21T11:05:59;33.10;1.00
11511;DHT22;5812;48.864;9.190;2022-08-21T11:08:17;33.60;1.00
11511;DHT22;5812;48.864;9.190;2022-08-21T11:10:59;34.70;1.00
11511;DHT22;5812;48.864;9.190;2022-08-21T11:16:41;35.20;1.00
11511;DHT22;5812;48.864;9.190;2022-08-21T11:29:59;37.30;1.00
11511;DHT22;5812;48.864;9.190;2022-08-21T11:32:48;36.50;1.00
11511;DHT22;5812;48.864;9.190;2022-08-21T11:40:51;36.60;1.00
11511;DHT22;5812;48.864;9.190;2022-08-21T11:43:45;37.50;1.00
11511;DHT22;5812;48.864;9.190;2022-08-21T11:49:23;36.40;1.00
11511;DHT22;5812;48.864;9.190;2022-08-21T11:54:47;39.10;1.00
11511;DHT22;5812;48.864;9.190;2022-08-21T11:57:20;39.90;1.00
11511;DHT22;5812;48.864;9.190;2022-08-21T12:02:35;42.50;1.00
11511;DHT22;5812;48.864;9.190;2022-08-21T12:05:12;43.10;1.00
11511;DHT22;5812;48.864;9.190;2022-08-21T12:07:47;42.40;1.00
11511;DHT22;5812;48.864;9.190;2022-08-21T12:10:18;40.60;1.00
11511;DHT22;5812;48.864;9.190;2022-08-21T12:12:46;40.00;1.00
11511;DHT22;5812;48.864;9.190;2022-08-21T12:18:06;39.90;1.00
11511;DHT22;5812;48.864;9.190;2022-08-21T12:23:31;40.90;1.00
11511;DHT22;5812;48.864;9.190;2022-08-21T12:26:18;41.50;1.00
11511;DHT22;5812;48.864;9.190;2022-08-21T12:28:46;40.60;1.00
11511;DHT22;5812;48.864;9.190;2022-08-21T12:31:24;41.10;1.00
11511;DHT22;5812;48.864;9.190;2022-08-21T12:33:59;42.40;1.00
11511;DHT22;5812;48.864;9.190;2022-08-21T12:36:45;39.30;1.00
11511;DHT22;5812;48.864;9.190;2022-08-21T12:39:19;38.70;1.00
11511;DHT22;5812;48.864;9.190;2022-08-21T12:41:51;39.60;1.00
11511;DHT22;5812;48.864;9.190;2022-08-21T12:44:27;39.80;1.00
11511;DHT22;5812;48.864;9.190;2022-08-21T12:47:19;39.00;1.00
11511;DHT22;5812;48.864;9.190;2022-08-21T12:50:06;40.40;1.00
11511;DHT22;5812;48.864;9.190;2022-08-21T12:52:49;40.60;1.00
11511;DHT22;5812;48.864;9.190;2022-08-21T12:55:29;40.60;1.00
11511;DHT22;5812;48.864;9.190;2022-08-21T12:57:55;40.20;1.00
11511;DHT22;5812;48.864;9.190;2022-08-21T13:00:24;41.10;1.00
11511;DHT22;5812;48.864;9.190;2022-08-21T13:02:51;42.10;1.00
11511;DHT22;5812;48.864;9.190;2022-08-21T13:05:36;40.60;1.00
11511;DHT22;5812;48.864;9.190;2022-08-21T13:08:07;41.00;1.00
11511;DHT22;5812;48.864;9.190;2022-08-21T13:10:34;42.40;1.00
11511;DHT22;5812;48.864;9.190;2022-08-21T13:13:04;43.60;1.00
11511;DHT22;5812;48.864;9.190;2022-08-21T13:15:36;44.10;1.00
11511;DHT22;5812;48.864;9.190;2022-08-21T13:18:05;44.00;1.00
11511;DHT22;5812;48.864;9.190;2022-08-21T13:20:39;43.80;1.00
11511;DHT22;5812;48.864;9.190;2022-08-21T13:23:26;43.90;1.00
11511;DHT22;5812;48.864;9.190;2022-08-21T13:25:53;44.50;1.00
11511;DHT22;5812;48.864;9.190;2022-08-21T13:28:18;45.20;1.00
11511;DHT22;5812;48.864;9.190;2022-08-21T13:30:54;45.30;1.00
11511;DHT22;5812;48.864;9.190;2022-08-21T13:33:23;46.40;1.00
11511;DHT22;5812;48.864;9.190;2022-08-21T13:38:29;45.50;1.00
11511;DHT22;5812;48.864;9.190;2022-08-21T13:41:03;43.30;1.00
11511;DHT22;5812;48.864;9.190;2022-08-21T13:43:35;42.50;1.00
11511;DHT22;5812;48.864;9.190;2022-08-21T13:46:06;40.50;1.00
11511;DHT22;5812;48.864;9.190;2022-08-21T13:48:33;40.20;1.00
11511;DHT22;5812;48.864;9.190;2022-08-21T13:51:00;41.00;1.00
11511;DHT22;5812;48.864;9.190;2022-08-21T13:53:48;41.90;1.00
11511;DHT22;5812;48.864;9.190;2022-08-21T13:56:32;41.40;1.00
11511;DHT22;5812;48.864;9.190;2022-08-21T13:59:00;41.90;1.00
11511;DHT22;5812;48.864;9.190;2022-08-21T14:01:27;40.60;1.00
11511;DHT22;5812;48.864;9.190;2022-08-21T14:04:01;41.10;1.00
11511;DHT22;5812;48.864;9.190;2022-08-21T14:06:32;40.60;1.00
11511;DHT22;5812;48.864;9.190;2022-08-21T14:09:00;37.70;1.00
11511;DHT22;5812;48.864;9.190;2022-08-21T14:11:31;36.00;1.00
11511;DHT22;5812;48.864;9.190;2022-08-21T14:14:00;35.30;1.00
11511;DHT22;5812;48.864;9.190;2022-08-21T14:16:40;33.50;1.00
11511;DHT22;5812;48.864;9.190;2022-08-21T14:19:19;32.30;1.00
11511;DHT22;5812;48.864;9.190;2022-08-21T14:21:45;31.60;1.00
11511;DHT22;5812;48.864;9.190;2022-08-21T14:24:27;31.30;1.00
11511;DHT22;5812;48.864;9.190;2022-08-21T14:27:01;31.20;1.00
11511;DHT22;5812;48.864;9.190;2022-08-21T14:29:31;30.90;1.00
11511;DHT22;5812;48.864;9.190;2022-08-21T14:31:59;30.20;1.00
11511;DHT22;5812;48.864;9.190;2022-08-21T14:34:27;29.80;1.00
11511;DHT22;5812;48.864;9.190;2022-08-21T14:36:55;29.60;1.00
11511;DHT22;5812;48.864;9.190;2022-08-21T14:39:21;29.30;1.00
11511;DHT22;5812;48.864;9.190;2022-08-21T14:41:47;29.10;1.00
11511;DHT22;5812;48.864;9.190;2022-08-21T14:44:15;29.20;1.00
11511;DHT22;5812;48.864;9.190;2022-08-21T14:46:41;29.20;1.00
11511;DHT22;5812;48.864;9.190;2022-08-21T14:49:07;29.10;1.00
11511;DHT22;5812;48.864;9.190;2022-08-21T14:51:33;28.70;1.00
11511;DHT22;5812;48.864;9.190;2022-08-21T14:53:59;28.60;1.00
11511;DHT22;5812;48.864;9.190;2022-08-21T14:56:25;28.50;1.00
11511;DHT22;5812;48.864;9.190;2022-08-21T14:58:51;28.20;1.00
11511;DHT22;5812;48.864;9.190;2022-08-21T15:01:19;28.00;1.00
11511;DHT22;5812;48.864;9.190;2022-08-21T15:03:46;28.00;1.00
11511;DHT22;5812;48.864;9.190;2022-08-21T15:06:14;28.00;1.00
11511;DHT22;5812;48.864;9.190;2022-08-21T15:08:41;28.00;1.00
11511;DHT22;5812;48.864;9.190;2022-08-21T15:11:08;27.80;1.00
11511;DHT22;5812;48.864;9.190;2022-08-21T15:13:36;27.70;1.00
11511;DHT22;5812;48.864;9.190;2022-08-21T15:16:03;27.60;1.00
11511;DHT22;5812;48.864;9.190;2022-08-21T15:18:31;27.50;1.00
11511;DHT22;5812;48.864;9.190;2022-08-21T15:20:57;27.50;1.00
11511;DHT22;5812;48.864;9.190;2022-08-21T15:23:23;27.50;1.00
11511;DHT22;5812;48.864;9.190;2022-08-21T15:25:50;27.30;1.00
11511;DHT22;5812;48.864;9.190;2022-08-21T15:28:17;27.40;1.00
11511;DHT22;5812;48.864;9.190;2022-08-21T15:30:44;27.40;1.00
11511;DHT22;5812;48.864;9.190;2022-08-21T15:33:10;27.40;1.00
11511;DHT22;5812;48.864;9.190;2022-08-21T15:35:36;27.50;1.00
11511;DHT22;5812;48.864;9.190;2022-08-21T15:38:02;27.40;1.00
11511;DHT22;5812;48.864;9.190;2022-08-21T15:40:28;27.40;1.00
11511;DHT22;5812;48.864;9.190;2022-08-21T15:42:58;27.40;1.00
11511;DHT22;5812;48.864;9.190;2022-08-21T15:45:24;27.70;1.00
11511;DHT22;5812;48.864;9.190;2022-08-21T15:47:50;28.10;1.00
11511;DHT22;5812;48.864;9.190;2022-08-21T15:50:17;28.00;1.00
11511;DHT22;5812;48.864;9.190;2022-08-21T15:52:42;28.00;1.00
11511;DHT22;5812;48.864;9.190;2022-08-21T15:55:09;27.80;1.00
11511;DHT22;5812;48.864;9.190;2022-08-21T15:57:37;27.80;1.00
11511;DHT22;5812;48.864;9.190;2022-08-21T16:00:13;27.70;1.00
11511;DHT22;5812;48.864;9.190;2022-08-21T16:02:42;27.60;1.00
11511;DHT22;5812;48.864;9.190;2022-08-21T16:05:09;27.30;1.00
11511;DHT22;5812;48.864;9.190;2022-08-21T16:07:37;27.10;1.00
11511;DHT22;5812;48.864;9.190;2022-08-21T16:10:04;26.90;1.00
11511;DHT22;5812;48.864;9.190;2022-08-21T16:12:38;26.80;1.00
11511;DHT22;5812;48.864;9.190;2022-08-21T16:15:07;26.60;1.00
11511;DHT22;5812;48.864;9.190;2022-08-21T16:17:36;26.60;1.00
11511;DHT22;5812;48.864;9.190;2022-08-21T16:20:08;26.60;1.00
11511;DHT22;5812;48.864;9.190;2022-08-21T16:22:35;26.80;1.00
11511;DHT22;5812;48.864;9.190;2022-08-21T16:25:01;26.90;1.00
11511;DHT22;5812;48.864;9.190;2022-08-21T16:27:27;27.20;1.00
11511;DHT22;5812;48.864;9.190;2022-08-21T16:29:52;27.50;1.00
11511;DHT22;5812;48.864;9.190;2022-08-21T16:32:18;27.80;1.00
11511;DHT22;5812;48.864;9.190;2022-08-21T16:34:47;28.40;1.00
11511;DHT22;5812;48.864;9.190;2022-08-21T16:37:15;29.10;1.00
11511;DHT22;5812;48.864;9.190;2022-08-21T16:39:41;29.00;1.00
11511;DHT22;5812;48.864;9.190;2022-08-21T16:42:11;28.80;1.00
11511;DHT22;5812;48.864;9.190;2022-08-21T16:44:37;28.40;1.00
11511;DHT22;5812;48.864;9.190;2022-08-21T16:47:03;28.00;1.00
11511;DHT22;5812;48.864;9.190;2022-08-21T16:49:29;27.90;1.00
11511;DHT22;5812;48.864;9.190;2022-08-21T16:51:56;27.30;1.00
11511;DHT22;5812;48.864;9.190;2022-08-21T16:54:22;27.10;1.00
11511;DHT22;5812;48.864;9.190;2022-08-21T16:56:48;26.80;1.00
11511;DHT22;5812;48.864;9.190;2022-08-21T16:59:14;26.90;1.00
11511;DHT22;5812;48.864;9.190;2022-08-21T17:01:40;26.80;1.00
11511;DHT22;5812;48.864;9.190;2022-08-21T17:04:06;26.70;1.00
11511;DHT22;5812;48.864;9.190;2022-08-21T17:06:32;26.70;1.00
11511;DHT22;5812;48.864;9.190;2022-08-21T17:08:58;26.50;1.00
11511;DHT22;5812;48.864;9.190;2022-08-21T17:11:29;26.50;1.00
11511;DHT22;5812;48.864;9.190;2022-08-21T17:13:56;26.30;1.00
11511;DHT22;5812;48.864;9.190;2022-08-21T17:16:22;26.20;1.00
11511;DHT22;5812;48.864;9.190;2022-08-21T17:18:48;26.00;1.00
11511;DHT22;5812;48.864;9.190;2022-08-21T17:21:15;26.10;1.00
11511;DHT22;5812;48.864;9.190;2022-08-21T17:23:40;26.50;1.00
11511;DHT22;5812;48.864;9.190;2022-08-21T17:26:07;26.60;1.00